createdAt,value
2018-12-31T00:02:28.305Z,99920.02
2018-12-31T00:04:59.993Z,99919.27
2018-12-31T00:07:29.498Z,99914.02
2018-12-31T00:09:59.551Z,99910.99
2018-12-31T00:12:28.941Z,99911.88
2018-12-31T00:14:59.734Z,99908.81
2018-12-31T00:17:30.189Z,99915.09
2018-12-31T00:20:00.197Z,99922.77
2018-12-31T00:22:29.105Z,99923.46
2018-12-31T00:24:58.494Z,99921.56
2018-12-31T00:27:27.883Z,99925.63
2018-12-31T00:29:57.793Z,99921.36
2018-12-31T00:32:27.927Z,99924.01
2018-12-31T00:34:57.020Z,99924.29
2018-12-31T00:37:26.306Z,99916.11
2018-12-31T00:39:55.813Z,99919.00
2018-12-31T00:42:25.102Z,99923.67
2018-12-31T00:44:54.401Z,99909.63
2018-12-31T00:47:23.430Z,99918.19
2018-12-31T00:49:52.313Z,99912.62
2018-12-31T00:52:21.597Z,99909.14
2018-12-31T00:54:51.464Z,99909.22
2018-12-31T00:57:20.802Z,99909.94
2018-12-31T00:59:50.362Z,99912.88
2018-12-31T01:02:19.583Z,99903.92
2018-12-31T01:04:49.075Z,99902.25
2018-12-31T01:07:18.610Z,99904.40
2018-12-31T01:09:48.004Z,99911.52
2018-12-31T01:12:17.355Z,99918.84
2018-12-31T01:14:46.241Z,99922.23
2018-12-31T01:17:15.265Z,99933.81
2018-12-31T01:19:44.820Z,99925.53
2018-12-31T01:22:14.178Z,99918.55
2018-12-31T01:24:43.139Z,99926.17
2018-12-31T01:27:12.837Z,99920.02
2018-12-31T01:29:42.437Z,99918.14
2018-12-31T01:32:11.617Z,99917.13
2018-12-31T01:34:41.245Z,99920.14
2018-12-31T01:37:10.142Z,99914.52
2018-12-31T01:39:39.135Z,99913.39
2018-12-31T01:42:08.120Z,99913.23
2018-12-31T01:44:37.313Z,99913.99
2018-12-31T01:47:06.572Z,99916.02
2018-12-31T01:49:35.720Z,99917.27
2018-12-31T01:52:05.024Z,99913.04
2018-12-31T01:54:34.335Z,99904.04
2018-12-31T01:57:03.614Z,99913.95
2018-12-31T01:59:32.656Z,99908.14
2018-12-31T02:02:01.696Z,99909.28
2018-12-31T02:04:30.931Z,99911.63
2018-12-31T02:07:00.896Z,99909.07
2018-12-31T02:09:30.225Z,99907.05
2018-12-31T02:12:00.122Z,99901.19
2018-12-31T02:14:29.079Z,99906.19
2018-12-31T02:16:58.173Z,99904.47
2018-12-31T02:19:27.212Z,99895.13
2018-12-31T02:22:35.793Z,99892.66
2018-12-31T02:25:05.483Z,99898.70
2018-12-31T02:27:34.575Z,99908.48
2018-12-31T02:30:03.847Z,99901.23
2018-12-31T02:32:33.200Z,99898.16
2018-12-31T02:35:02.632Z,99893.66
2018-12-31T02:37:31.958Z,99895.64
2018-12-31T02:40:01.450Z,99897.95
2018-12-31T02:42:30.528Z,99898.39
2018-12-31T02:44:59.880Z,99898.61
2018-12-31T02:47:29.166Z,99895.73
2018-12-31T02:49:58.661Z,99898.33
2018-12-31T02:52:28.263Z,99893.69
2018-12-31T02:54:57.603Z,99892.98
2018-12-31T02:57:27.617Z,99890.32
2018-12-31T02:59:59.063Z,99887.16
2018-12-31T03:02:28.340Z,99885.55
2018-12-31T03:04:57.303Z,99887.56
2018-12-31T03:07:26.531Z,99883.88
2018-12-31T03:09:56.373Z,99879.81
2018-12-31T03:12:25.652Z,99879.03
2018-12-31T03:14:55.356Z,99881.86
2018-12-31T03:17:24.644Z,99878.30
2018-12-31T03:19:54.267Z,99878.16
2018-12-31T03:22:23.761Z,99877.88
2018-12-31T03:24:53.741Z,99874.67
2018-12-31T03:27:22.698Z,99876.71
2018-12-31T03:29:52.278Z,99868.34
2018-12-31T03:32:21.255Z,99857.58
2018-12-31T03:34:50.899Z,99863.12
2018-12-31T03:37:20.178Z,99860.77
2018-12-31T03:39:49.785Z,99873.18
2018-12-31T03:42:18.906Z,99873.02
2018-12-31T03:44:50.188Z,99876.88
2018-12-31T03:47:19.857Z,99863.63
2018-12-31T03:49:49.118Z,99865.15
2018-12-31T03:52:18.013Z,99869.77
2018-12-31T03:54:47.329Z,99864.49
2018-12-31T03:57:17.171Z,99871.59
2018-12-31T03:59:46.139Z,99875.72
2018-12-31T04:02:15.444Z,99872.08
2018-12-31T04:04:44.574Z,99872.33
2018-12-31T04:07:14.263Z,99866.77
2018-12-31T04:09:43.352Z,99865.84
2018-12-31T04:12:12.860Z,99862.75
2018-12-31T04:14:42.143Z,99856.16
2018-12-31T04:17:11.063Z,99857.67
2018-12-31T04:19:40.339Z,99852.08
2018-12-31T04:22:09.392Z,99856.79
2018-12-31T04:24:38.744Z,99863.13
2018-12-31T04:27:08.397Z,99863.38
2018-12-31T04:29:37.736Z,99847.73
2018-12-31T04:32:07.341Z,99842.30
2018-12-31T04:34:36.337Z,99842.25
2018-12-31T04:37:05.646Z,99843.23
2018-12-31T04:39:34.669Z,99846.44
2018-12-31T04:42:03.987Z,99837.66
2018-12-31T04:44:33.302Z,99842.53
2018-12-31T04:47:02.366Z,99840.21
2018-12-31T04:49:32.057Z,99833.23
2018-12-31T04:52:01.397Z,99834.08
2018-12-31T04:54:31.046Z,99836.81
2018-12-31T04:57:00.033Z,99832.95
2018-12-31T04:59:29.085Z,99826.91
2018-12-31T05:01:58.771Z,99827.54
2018-12-31T05:04:27.885Z,99822.50
2018-12-31T05:06:56.876Z,99824.67
2018-12-31T05:09:26.439Z,99820.02
2018-12-31T05:11:55.866Z,99826.95
2018-12-31T05:14:24.874Z,99818.95
2018-12-31T05:16:54.131Z,99825.00
2018-12-31T05:19:25.226Z,99819.30
2018-12-31T05:21:54.904Z,99825.84
2018-12-31T05:24:24.184Z,99822.56
2018-12-31T05:26:53.916Z,99826.88
2018-12-31T05:29:23.310Z,99828.41
2018-12-31T05:31:53.059Z,99832.61
2018-12-31T05:34:22.587Z,99832.87
2018-12-31T05:36:52.136Z,99838.27
2018-12-31T05:39:21.105Z,99838.70
2018-12-31T05:41:50.532Z,99849.30
2018-12-31T05:44:19.958Z,99859.61
2018-12-31T05:46:48.977Z,99854.29
2018-12-31T05:49:18.067Z,99861.03
2018-12-31T05:51:47.334Z,99864.28
2018-12-31T05:54:16.618Z,99866.39
2018-12-31T05:56:45.650Z,99862.72
2018-12-31T05:59:14.929Z,99872.67
2018-12-31T06:01:44.352Z,99868.40
2018-12-31T06:04:13.741Z,99863.70
2018-12-31T06:06:43.116Z,99863.84
2018-12-31T06:09:12.933Z,99862.11
2018-12-31T06:11:42.182Z,99873.44
2018-12-31T06:14:11.381Z,99877.77
2018-12-31T06:16:41.546Z,99875.81
2018-12-31T06:19:10.963Z,99874.79
2018-12-31T06:21:40.255Z,99878.87
2018-12-31T06:24:10.602Z,99881.84
2018-12-31T06:26:39.501Z,99875.30
2018-12-31T06:29:09.522Z,99876.27
2018-12-31T06:31:38.483Z,99882.75
2018-12-31T06:34:07.880Z,99888.23
2018-12-31T06:36:37.182Z,99888.48
2018-12-31T06:39:08.637Z,99887.53
2018-12-31T06:41:38.039Z,99896.69
2018-12-31T06:44:07.872Z,99894.61
2018-12-31T06:46:37.460Z,99895.80
2018-12-31T06:49:07.265Z,99907.93
2018-12-31T06:51:36.264Z,99907.39
2018-12-31T06:54:05.553Z,99906.51
2018-12-31T06:56:35.061Z,99906.75
2018-12-31T06:59:04.261Z,99908.04
2018-12-31T07:01:33.120Z,99910.95
2018-12-31T07:04:02.460Z,99910.25
2018-12-31T07:06:31.779Z,99910.66
2018-12-31T07:09:01.893Z,99913.81
2018-12-31T07:11:31.170Z,99915.31
2018-12-31T07:14:00.480Z,99910.17
2018-12-31T07:16:30.071Z,99910.83
2018-12-31T07:18:59.042Z,99909.72
2018-12-31T07:21:28.502Z,99916.42
2018-12-31T07:23:57.450Z,99921.98
2018-12-31T07:26:26.663Z,99923.48
2018-12-31T07:28:56.990Z,99929.03
2018-12-31T07:31:26.227Z,99928.26
2018-12-31T07:33:55.910Z,99935.40
2018-12-31T07:36:24.902Z,99931.16
2018-12-31T07:38:54.403Z,99935.40
2018-12-31T07:41:23.346Z,99936.84
2018-12-31T07:43:52.666Z,99937.66
2018-12-31T07:46:22.313Z,99938.47
2018-12-31T07:48:51.962Z,99952.88
2018-12-31T07:51:21.314Z,99946.28
2018-12-31T07:53:50.539Z,99947.33
2018-12-31T07:56:20.628Z,99941.85
2018-12-31T07:58:49.847Z,99953.55
2018-12-31T08:01:19.117Z,99947.59
2018-12-31T08:03:48.176Z,99950.23
2018-12-31T08:06:17.158Z,99951.66
2018-12-31T08:08:46.312Z,99952.90
2018-12-31T08:11:15.822Z,99954.36
2018-12-31T08:13:45.437Z,99947.22
2018-12-31T08:16:14.675Z,99949.58
2018-12-31T08:18:43.743Z,99951.97
2018-12-31T08:21:13.225Z,99956.67
2018-12-31T08:23:42.527Z,99951.00
2018-12-31T08:26:11.941Z,99954.42
2018-12-31T08:28:42.069Z,99958.94
2018-12-31T08:31:11.094Z,99962.11
2018-12-31T08:33:40.142Z,99958.55
2018-12-31T08:36:09.445Z,99973.56
2018-12-31T08:38:39.781Z,99973.66
2018-12-31T08:41:08.880Z,99976.61
2018-12-31T08:43:38.315Z,99973.97
2018-12-31T08:46:07.633Z,99973.02
2018-12-31T08:48:36.594Z,99980.69
2018-12-31T08:51:05.959Z,99976.07
2018-12-31T08:53:35.459Z,99979.83
2018-12-31T08:56:05.046Z,99974.16
2018-12-31T08:58:34.104Z,99971.48
2018-12-31T09:01:04.751Z,99977.28
2018-12-31T09:03:34.186Z,99987.94
2018-12-31T09:06:03.519Z,99975.05
2018-12-31T09:08:34.772Z,99978.38
2018-12-31T09:11:04.139Z,99979.47
2018-12-31T09:13:33.139Z,99970.59
2018-12-31T09:16:02.443Z,99964.69
2018-12-31T09:18:31.739Z,99968.34
2018-12-31T09:21:00.938Z,99970.42
2018-12-31T09:23:30.083Z,99967.59
2018-12-31T09:25:59.214Z,99970.22
2018-12-31T09:28:28.984Z,99966.09
2018-12-31T09:30:58.182Z,99958.46
2018-12-31T09:33:27.750Z,99954.16
2018-12-31T09:35:57.043Z,99961.94
2018-12-31T09:38:25.969Z,99957.86
2018-12-31T09:40:55.181Z,99967.97
2018-12-31T09:43:24.880Z,99956.36
2018-12-31T09:45:53.946Z,99957.89
2018-12-31T09:48:23.244Z,99955.06
2018-12-31T09:50:52.255Z,99959.28
2018-12-31T09:53:21.215Z,99964.95
2018-12-31T09:55:50.440Z,99958.76
2018-12-31T09:58:19.722Z,99962.07
2018-12-31T10:00:49.031Z,99966.19
2018-12-31T10:03:18.285Z,99968.50
2018-12-31T10:05:47.578Z,99954.30
2018-12-31T10:08:16.485Z,99963.05
2018-12-31T10:10:47.577Z,99962.45
2018-12-31T10:13:16.664Z,99964.63
2018-12-31T10:15:45.965Z,99962.98
2018-12-31T10:18:15.140Z,99967.48
2018-12-31T10:20:44.632Z,99954.63
2018-12-31T10:23:14.167Z,99952.69
2018-12-31T10:25:43.156Z,99957.01
2018-12-31T10:28:12.768Z,99951.77
2018-12-31T10:30:42.398Z,99943.59
2018-12-31T10:33:11.338Z,99937.05
2018-12-31T10:35:40.199Z,99939.69
2018-12-31T10:38:09.180Z,99943.84
2018-12-31T10:40:38.222Z,99947.59
2018-12-31T10:43:07.774Z,99946.85
2018-12-31T10:45:37.064Z,99944.98
2018-12-31T10:48:06.899Z,99947.09
2018-12-31T10:50:36.163Z,99940.57
2018-12-31T10:53:05.133Z,99940.17
2018-12-31T10:55:34.524Z,99951.14
2018-12-31T10:58:04.271Z,99949.05
2018-12-31T11:00:33.898Z,99955.41
2018-12-31T11:03:02.885Z,99951.90
2018-12-31T11:05:31.902Z,99943.25
2018-12-31T11:08:01.214Z,99945.83
2018-12-31T11:10:30.867Z,99946.43
2018-12-31T11:13:00.085Z,99942.44
2018-12-31T11:15:29.691Z,99936.39
2018-12-31T11:17:58.655Z,99930.84
2018-12-31T11:20:28.733Z,99931.27
2018-12-31T11:22:58.090Z,99923.95
2018-12-31T11:25:27.148Z,99922.50
2018-12-31T11:27:56.137Z,99922.89
2018-12-31T11:30:25.118Z,99931.52
2018-12-31T11:32:54.330Z,99933.91
2018-12-31T11:35:23.304Z,99932.77
2018-12-31T11:37:52.575Z,99925.36
2018-12-31T11:40:21.536Z,99919.59
2018-12-31T11:42:50.750Z,99921.12
2018-12-31T11:45:20.055Z,99914.48
2018-12-31T11:47:49.690Z,99909.36
2018-12-31T11:50:18.898Z,99901.27
2018-12-31T11:52:48.171Z,99900.45
2018-12-31T11:55:17.443Z,99897.38
2018-12-31T11:57:47.065Z,99895.22
2018-12-31T12:00:16.124Z,99894.50
2018-12-31T12:02:46.290Z,99895.16
2018-12-31T12:05:15.753Z,99896.41
2018-12-31T12:07:45.341Z,99892.45
2018-12-31T12:10:14.336Z,99889.70
2018-12-31T12:12:43.413Z,99886.23
2018-12-31T12:15:12.767Z,99885.19
2018-12-31T12:17:41.986Z,99886.31
2018-12-31T12:20:11.278Z,99881.84
2018-12-31T12:22:40.226Z,99869.03
2018-12-31T12:25:09.224Z,99872.27
2018-12-31T12:27:38.632Z,99873.64
2018-12-31T12:30:08.891Z,99873.95
2018-12-31T12:32:38.225Z,99861.30
2018-12-31T12:35:07.927Z,99861.16
2018-12-31T12:37:37.205Z,99864.45
2018-12-31T12:40:07.308Z,99857.91
2018-12-31T12:42:36.719Z,99861.60
2018-12-31T12:45:06.880Z,99862.14
2018-12-31T12:47:35.997Z,99858.03
2018-12-31T12:50:06.996Z,99863.31
2018-12-31T12:52:36.384Z,99861.14
2018-12-31T12:55:05.464Z,99859.83
2018-12-31T12:57:35.089Z,99855.30
2018-12-31T13:00:04.446Z,99862.69
2018-12-31T13:02:33.904Z,99863.16
2018-12-31T13:05:03.797Z,99860.64
2018-12-31T13:07:33.328Z,99859.25
2018-12-31T13:10:02.723Z,99861.30
2018-12-31T13:12:31.861Z,99860.33
2018-12-31T13:15:00.927Z,99865.70
2018-12-31T13:17:30.122Z,99867.93
2018-12-31T13:19:59.890Z,99859.52
2018-12-31T13:22:29.121Z,99865.58
2018-12-31T13:24:58.643Z,99861.44
2018-12-31T13:27:27.591Z,99866.36
2018-12-31T13:29:57.121Z,99865.47
2018-12-31T13:32:26.876Z,99870.02
2018-12-31T13:34:55.857Z,99865.50
2018-12-31T13:37:24.906Z,99868.48
2018-12-31T13:39:54.339Z,99867.92
2018-12-31T13:42:23.632Z,99866.17
2018-12-31T13:44:52.884Z,99869.28
2018-12-31T13:47:22.235Z,99861.84
2018-12-31T13:49:51.216Z,99872.41
2018-12-31T13:52:20.918Z,99870.91
2018-12-31T13:54:49.810Z,99875.54
2018-12-31T13:57:19.348Z,99879.50
2018-12-31T13:59:48.685Z,99880.45
2018-12-31T14:02:18.179Z,99883.47
2018-12-31T14:04:47.148Z,99889.23
2018-12-31T14:07:16.314Z,99890.98
2018-12-31T14:09:45.731Z,99883.50
2018-12-31T14:12:15.226Z,99884.59
2018-12-31T14:14:44.441Z,99888.04
2018-12-31T14:17:13.693Z,99891.63
2018-12-31T14:19:42.687Z,99884.80
2018-12-31T14:22:11.691Z,99881.30
2018-12-31T14:24:40.631Z,99892.11
2018-12-31T14:27:09.817Z,99885.81
2018-12-31T14:29:39.117Z,99882.66
2018-12-31T14:32:08.107Z,99891.94
2018-12-31T14:34:37.402Z,99885.85
2018-12-31T14:37:06.376Z,99884.04
2018-12-31T14:39:35.784Z,99889.97
2018-12-31T14:42:05.038Z,99892.67
2018-12-31T14:44:34.286Z,99894.77
2018-12-31T14:47:03.284Z,99898.60
2018-12-31T14:49:32.353Z,99899.09
2018-12-31T14:52:01.316Z,99901.47
2018-12-31T14:54:30.399Z,99905.72
2018-12-31T14:56:59.662Z,99910.34
2018-12-31T14:59:28.683Z,99917.87
2018-12-31T15:01:57.622Z,99923.92
2018-12-31T15:04:26.635Z,99920.30
2018-12-31T15:06:55.595Z,99934.98
2018-12-31T15:09:24.843Z,99920.91
2018-12-31T15:11:54.456Z,99919.14
2018-12-31T15:14:23.753Z,99918.01
2018-12-31T15:16:52.685Z,99932.45
2018-12-31T15:19:21.627Z,99928.59
2018-12-31T15:21:51.361Z,99932.67
2018-12-31T15:24:21.110Z,99932.12
2018-12-31T15:26:50.694Z,99933.13
2018-12-31T15:29:19.677Z,99928.94
2018-12-31T15:31:49.001Z,99933.15
2018-12-31T15:34:18.273Z,99927.98
2018-12-31T15:36:47.231Z,99919.55
2018-12-31T15:39:16.533Z,99920.94
2018-12-31T15:41:45.600Z,99917.80
2018-12-31T15:44:14.980Z,99928.83
2018-12-31T15:46:44.282Z,99931.94
2018-12-31T15:49:13.864Z,99947.87
2018-12-31T15:51:43.535Z,99945.98
2018-12-31T15:54:13.251Z,99947.72
2018-12-31T15:56:42.239Z,99945.31
2018-12-31T15:59:11.617Z,99951.06
2018-12-31T16:01:41.284Z,99951.91
2018-12-31T16:04:10.369Z,99961.38
2018-12-31T16:06:39.668Z,99970.67
2018-12-31T16:09:08.856Z,99961.63
2018-12-31T16:11:38.041Z,99962.83
2018-12-31T16:14:07.473Z,99963.66
2018-12-31T16:16:36.784Z,99964.28
2018-12-31T16:19:06.074Z,99958.17
2018-12-31T16:21:35.080Z,99948.25
2018-12-31T16:24:05.259Z,99952.25
2018-12-31T16:26:34.496Z,99952.96
2018-12-31T16:29:03.504Z,99963.83
2018-12-31T16:31:32.508Z,99963.32
2018-12-31T16:34:01.803Z,99964.17
2018-12-31T16:36:31.067Z,99960.23
2018-12-31T16:39:00.053Z,99966.42
2018-12-31T16:41:29.865Z,99961.00
2018-12-31T16:43:58.926Z,99953.88
2018-12-31T16:46:28.406Z,99949.80
2018-12-31T16:48:57.806Z,99942.38
2018-12-31T16:51:27.113Z,99948.96
2018-12-31T16:53:56.134Z,99944.48
2018-12-31T16:56:25.181Z,99948.94
2018-12-31T16:58:54.251Z,99947.85
2018-12-31T17:01:23.241Z,99949.95
2018-12-31T17:03:52.895Z,99949.45
2018-12-31T17:06:22.380Z,99945.97
2018-12-31T17:08:51.689Z,99951.06
2018-12-31T17:11:21.140Z,99949.05
2018-12-31T17:13:50.546Z,99952.06
2018-12-31T17:16:19.530Z,99952.33
2018-12-31T17:18:48.522Z,99955.40
2018-12-31T17:21:17.427Z,99959.41
2018-12-31T17:23:47.092Z,99964.36
2018-12-31T17:26:16.268Z,99960.46
2018-12-31T17:28:45.486Z,99967.07
2018-12-31T17:31:15.081Z,99966.00
2018-12-31T17:33:44.910Z,99968.39
2018-12-31T17:36:14.037Z,99969.29
2018-12-31T17:38:43.593Z,99966.31
2018-12-31T17:41:12.601Z,99965.22
2018-12-31T17:43:41.964Z,99972.72
2018-12-31T17:46:10.952Z,99969.81
2018-12-31T17:48:39.991Z,99963.47
2018-12-31T17:51:09.472Z,99964.98
2018-12-31T17:53:38.920Z,99968.67
2018-12-31T17:56:08.014Z,99971.28
2018-12-31T17:58:37.372Z,99970.25
2018-12-31T18:01:06.674Z,99974.30
2018-12-31T18:03:36.901Z,99976.88
2018-12-31T18:06:06.771Z,99973.98
2018-12-31T18:08:35.769Z,99985.20
2018-12-31T18:11:04.754Z,99973.42
2018-12-31T18:13:34.145Z,99977.13
2018-12-31T18:16:03.982Z,99978.37
2018-12-31T18:18:33.301Z,99982.77
2018-12-31T18:21:02.650Z,99979.53
2018-12-31T18:23:32.530Z,99972.33
2018-12-31T18:26:01.894Z,99974.98
2018-12-31T18:28:31.537Z,99973.97
2018-12-31T18:31:00.745Z,99968.83
2018-12-31T18:33:30.255Z,99976.73
2018-12-31T18:36:00.278Z,99973.56
2018-12-31T18:38:29.666Z,99970.00
2018-12-31T18:40:58.824Z,99969.28
2018-12-31T18:43:28.164Z,99973.55
2018-12-31T18:45:57.179Z,99972.06
2018-12-31T18:48:26.275Z,99971.54
2018-12-31T18:50:55.749Z,99969.81
2018-12-31T18:53:24.765Z,99971.27
2018-12-31T18:55:54.055Z,99976.03
2018-12-31T18:58:23.443Z,99982.28
2018-12-31T19:00:53.383Z,99974.95
2018-12-31T19:03:22.666Z,99979.11
2018-12-31T19:05:51.669Z,99979.57
2018-12-31T19:08:20.958Z,99988.25
2018-12-31T19:10:50.374Z,99989.38
2018-12-31T19:13:19.888Z,99981.56
2018-12-31T19:15:49.176Z,99981.48
2018-12-31T19:18:18.165Z,99980.30
2018-12-31T19:20:47.100Z,99981.41
2018-12-31T19:23:15.968Z,99984.21
2018-12-31T19:25:44.837Z,99985.47
2018-12-31T19:28:13.738Z,99982.65
2018-12-31T19:30:42.964Z,99980.61
2018-12-31T19:33:12.137Z,99979.63
2018-12-31T19:35:41.451Z,99978.66
2018-12-31T19:38:10.818Z,99976.55
2018-12-31T19:40:40.158Z,99980.34
2018-12-31T19:43:09.744Z,99981.00
2018-12-31T19:45:39.130Z,99989.80
2018-12-31T19:48:08.126Z,99987.88
2018-12-31T19:50:37.325Z,99989.39
2018-12-31T19:53:06.408Z,99985.75
2018-12-31T19:55:35.587Z,99976.23
2018-12-31T19:58:04.722Z,99976.30
2018-12-31T20:00:33.797Z,99989.37
2018-12-31T20:03:02.841Z,99986.70
2018-12-31T20:05:31.867Z,99985.25
2018-12-31T20:08:01.037Z,99976.77
2018-12-31T20:10:30.408Z,99970.33
2018-12-31T20:13:00.106Z,99962.75
2018-12-31T20:15:30.019Z,99953.71
2018-12-31T20:17:59.646Z,99949.60
2018-12-31T20:20:29.144Z,99943.10
2018-12-31T20:22:58.698Z,99943.72
2018-12-31T20:25:28.213Z,99948.73
2018-12-31T20:27:57.795Z,99953.34
2018-12-31T20:30:26.951Z,99950.47
2018-12-31T20:32:56.295Z,99940.95
2018-12-31T20:35:25.697Z,99952.31
2018-12-31T20:37:55.565Z,99954.86
2018-12-31T20:40:24.562Z,99953.25
2018-12-31T20:42:53.860Z,99953.76
2018-12-31T20:45:24.218Z,99949.52
2018-12-31T20:48:01.481Z,99946.75
2018-12-31T20:50:24.225Z,99944.34
2018-12-31T20:52:53.369Z,99945.77
2018-12-31T20:55:22.349Z,99948.53
2018-12-31T20:57:52.349Z,99947.91
2018-12-31T21:00:21.862Z,99938.30
2018-12-31T21:02:51.365Z,99941.16
2018-12-31T21:05:20.263Z,99939.02
2018-12-31T21:07:50.046Z,99941.23
2018-12-31T21:10:19.657Z,99934.70
2018-12-31T21:12:49.181Z,99927.53
2018-12-31T21:15:18.150Z,99931.43
2018-12-31T21:17:47.537Z,99927.18
2018-12-31T21:20:17.063Z,99927.79
2018-12-31T21:22:46.669Z,99926.13
2018-12-31T21:25:16.448Z,99919.34
2018-12-31T21:27:45.781Z,99921.48
2018-12-31T21:30:15.503Z,99914.95
2018-12-31T21:32:44.506Z,99914.02
2018-12-31T21:35:14.397Z,99924.26
2018-12-31T21:37:44.211Z,99913.82
2018-12-31T21:40:13.826Z,99915.66
2018-12-31T21:42:42.776Z,99917.08
2018-12-31T21:45:12.119Z,99913.16
2018-12-31T21:47:41.740Z,99919.16
2018-12-31T21:50:11.126Z,99918.32
2018-12-31T21:52:40.019Z,99918.72
2018-12-31T21:55:09.178Z,99922.95
2018-12-31T21:57:38.415Z,99929.39
2018-12-31T22:00:08.344Z,99923.23
2018-12-31T22:02:38.441Z,99922.62
2018-12-31T22:05:08.055Z,99923.95
2018-12-31T22:07:37.583Z,99920.22
2018-12-31T22:10:06.620Z,99920.05
2018-12-31T22:12:36.045Z,99913.83
2018-12-31T22:15:08.331Z,99917.20
2018-12-31T22:17:37.621Z,99914.80
2018-12-31T22:20:10.735Z,99919.48
2018-12-31T22:22:40.016Z,99916.43
2018-12-31T22:25:09.046Z,99913.83
2018-12-31T22:27:38.059Z,99907.48
2018-12-31T22:30:08.848Z,99915.66
2018-12-31T22:32:38.141Z,99903.43
2018-12-31T22:35:07.479Z,99905.78
2018-12-31T22:37:36.318Z,99904.20
2018-12-31T22:40:05.760Z,99908.19
2018-12-31T22:42:35.144Z,99909.63
2018-12-31T22:45:04.286Z,99910.89
2018-12-31T22:47:33.629Z,99908.76
2018-12-31T22:50:03.519Z,99911.63
2018-12-31T22:52:33.164Z,99912.56
2018-12-31T22:55:02.662Z,99914.05
2018-12-31T22:57:31.687Z,99916.42
2018-12-31T23:00:01.364Z,99914.00
2018-12-31T23:02:30.685Z,99908.17
2018-12-31T23:04:59.983Z,99911.94
2018-12-31T23:07:29.261Z,99911.03
2018-12-31T23:09:58.692Z,99917.05
2018-12-31T23:12:27.758Z,99914.45
2018-12-31T23:14:57.587Z,99910.70
2018-12-31T23:17:26.803Z,99912.65
2018-12-31T23:19:55.768Z,99908.56
2018-12-31T23:22:24.679Z,99921.27
2018-12-31T23:24:54.781Z,99907.17
2018-12-31T23:27:23.822Z,99916.08
2018-12-31T23:29:53.482Z,99916.61
2018-12-31T23:32:23.086Z,99918.50
2018-12-31T23:34:52.393Z,99919.84
2018-12-31T23:37:21.692Z,99916.30
2018-12-31T23:39:50.902Z,99911.11
2018-12-31T23:42:19.921Z,99912.59
2018-12-31T23:44:53.061Z,99908.14
2018-12-31T23:47:20.218Z,99905.68
2018-12-31T23:49:49.601Z,99908.79
2018-12-31T23:52:18.655Z,99896.63
2018-12-31T23:54:48.119Z,99902.91
2018-12-31T23:57:17.959Z,99901.08
2018-12-31T23:59:47.676Z,99900.92
